sensor_id;sensor_type;location;lat;lon;timestamp;pressure;altitude;pressure_sealevel;temperature;humidity
64862;BME280;62652;42.274;-71.436;2023-02-15T00:00:01;101420.0;;;4.777777777777779;49.2
64862;BME280;62652;42.274;-71.436;2023-02-15T00:01:05;101430.0;;;4.777777777777779;49.0
64862;BME280;62652;42.274;-71.436;2023-02-15T00:02:01;101430.0;;;4.777777777777779;48.9
64862;BME280;62652;42.274;-71.436;2023-02-15T00:03:00;101430.0;;;4.61111111111111;49.4
64862;BME280;62652;42.274;-71.436;2023-02-15T00:04:01;101430.0;;;4.61111111111111;49.4
64862;BME280;62652;42.274;-71.436;2023-02-15T00:05:01;101430.0;;;4.722222222222222;49.8
64862;BME280;62652;42.274;-71.436;2023-02-15T00:06:01;101430.0;;;4.722222222222222;50.1
64862;BME280;62652;42.274;-71.436;2023-02-15T00:07:00;101430.0;;;4.722222222222222;49.6
64862;BME280;62652;42.274;-71.436;2023-02-15T00:08:00;101440.0;;;4.8888888888888875;49.1
64862;BME280;62652;42.274;-71.436;2023-02-15T00:09:01;101440.0;;;4.777777777777779;49.5
64862;BME280;62652;42.274;-71.436;2023-02-15T00:10:01;101440.0;;;4.777777777777779;50.1
64862;BME280;62652;42.274;-71.436;2023-02-15T00:11:06;101440.0;;;4.8888888888888875;50.2
64862;BME280;62652;42.274;-71.436;2023-02-15T00:12:00;101430.0;;;4.777777777777779;51.2
64862;BME280;62652;42.274;-71.436;2023-02-15T00:13:00;101430.0;;;4.777777777777779;50.9
64862;BME280;62652;42.274;-71.436;2023-02-15T00:14:00;101440.0;;;4.722222222222222;50.0
64862;BME280;62652;42.274;-71.436;2023-02-15T00:15:01;101440.0;;;4.722222222222222;50.1
64862;BME280;62652;42.274;-71.436;2023-02-15T00:16:02;101440.0;;;4.722222222222222;50.0
64862;BME280;62652;42.274;-71.436;2023-02-15T00:17:01;101440.0;;;4.61111111111111;50.5
64862;BME280;62652;42.274;-71.436;2023-02-15T00:18:00;101440.0;;;4.61111111111111;50.8
64862;BME280;62652;42.274;-71.436;2023-02-15T00:19:01;101440.0;;;4.61111111111111;51.1
64862;BME280;62652;42.274;-71.436;2023-02-15T00:20:00;101440.0;;;4.500000000000001;50.6
64862;BME280;62652;42.274;-71.436;2023-02-15T00:21:04;101440.0;;;4.500000000000001;50.9
64862;BME280;62652;42.274;-71.436;2023-02-15T00:22:00;101440.0;;;4.500000000000001;51.2
64862;BME280;62652;42.274;-71.436;2023-02-15T00:23:00;101440.0;;;4.388888888888888;50.8
64862;BME280;62652;42.274;-71.436;2023-02-15T00:24:02;101440.0;;;4.2777777777777795;52.4
64862;BME280;62652;42.274;-71.436;2023-02-15T00:25:00;101440.0;;;4.2777777777777795;52.7
64862;BME280;62652;42.274;-71.436;2023-02-15T00:26:05;101440.0;;;4.222222222222223;53.0
64862;BME280;62652;42.274;-71.436;2023-02-15T00:27:00;101440.0;;;4.111111111111111;53.5
64862;BME280;62652;42.274;-71.436;2023-02-15T00:28:00;101440.0;;;4.111111111111111;53.4
64862;BME280;62652;42.274;-71.436;2023-02-15T00:29:01;101440.0;;;4.111111111111111;53.5
64862;BME280;62652;42.274;-71.436;2023-02-15T00:30:01;101440.0;;;4.111111111111111;52.9
64862;BME280;62652;42.274;-71.436;2023-02-15T00:31:02;101440.0;;;4.000000000000002;53.4
64862;BME280;62652;42.274;-71.436;2023-02-15T00:32:01;101440.0;;;4.000000000000002;53.7
64862;BME280;62652;42.274;-71.436;2023-02-15T00:33:00;101440.0;;;4.000000000000002;54.1
64862;BME280;62652;42.274;-71.436;2023-02-15T00:34:02;101440.0;;;4.000000000000002;53.7
64862;BME280;62652;42.274;-71.436;2023-02-15T00:35:01;101440.0;;;4.000000000000002;54.6
64862;BME280;62652;42.274;-71.436;2023-02-15T00:36:01;101440.0;;;3.888888888888889;55.2
64862;BME280;62652;42.274;-71.436;2023-02-15T00:37:01;101440.0;;;3.888888888888889;55.2
64862;BME280;62652;42.274;-71.436;2023-02-15T00:38:00;101430.0;;;3.888888888888889;54.9
64862;BME280;62652;42.274;-71.436;2023-02-15T00:39:01;101440.0;;;3.888888888888889;55.0
64862;BME280;62652;42.274;-71.436;2023-02-15T00:40:01;101440.0;;;3.7777777777777763;56.0
64862;BME280;62652;42.274;-71.436;2023-02-15T00:41:03;101440.0;;;3.7777777777777763;55.1
64862;BME280;62652;42.274;-71.436;2023-02-15T00:42:00;101440.0;;;3.7777777777777763;54.9
64862;BME280;62652;42.274;-71.436;2023-02-15T00:43:00;101430.0;;;3.7777777777777763;54.6
64862;BME280;62652;42.274;-71.436;2023-02-15T00:44:01;101440.0;;;3.7777777777777763;54.4
64862;BME280;62652;42.274;-71.436;2023-02-15T00:45:00;101430.0;;;3.7222222222222237;54.3
64862;BME280;62652;42.274;-71.436;2023-02-15T00:46:01;101430.0;;;3.7222222222222237;54.2
64862;BME280;62652;42.274;-71.436;2023-02-15T00:47:00;101430.0;;;3.7222222222222237;53.2
64862;BME280;62652;42.274;-71.436;2023-02-15T00:48:01;101420.0;;;3.7222222222222237;53.8
64862;BME280;62652;42.274;-71.436;2023-02-15T00:49:01;101430.0;;;3.611111111111111;55.0
64862;BME280;62652;42.274;-71.436;2023-02-15T00:50:00;101430.0;;;3.4999999999999982;55.8
64862;BME280;62652;42.274;-71.436;2023-02-15T00:51:01;101440.0;;;3.4999999999999982;55.8
64862;BME280;62652;42.274;-71.436;2023-02-15T00:52:00;101440.0;;;3.4999999999999982;55.7
64862;BME280;62652;42.274;-71.436;2023-02-15T00:53:01;101440.0;;;3.3888888888888897;56.3
64862;BME280;62652;42.274;-71.436;2023-02-15T00:54:00;101440.0;;;3.3888888888888897;55.7
64862;BME280;62652;42.274;-71.436;2023-02-15T00:55:01;101450.0;;;3.4999999999999982;56.4
64862;BME280;62652;42.274;-71.436;2023-02-15T00:56:01;101450.0;;;3.7777777777777763;56.6
64862;BME280;62652;42.274;-71.436;2023-02-15T00:57:00;101450.0;;;3.888888888888889;57.0
64862;BME280;62652;42.274;-71.436;2023-02-15T00:58:01;101450.0;;;3.888888888888889;58.0
64862;BME280;62652;42.274;-71.436;2023-02-15T00:59:01;101450.0;;;3.7777777777777763;57.8
64862;BME280;62652;42.274;-71.436;2023-02-15T01:00:00;101450.0;;;3.7777777777777763;57.7
64862;BME280;62652;42.274;-71.436;2023-02-15T01:01:04;101450.0;;;3.7222222222222237;57.1
64862;BME280;62652;42.274;-71.436;2023-02-15T01:02:00;101450.0;;;3.611111111111111;57.2
64862;BME280;62652;42.274;-71.436;2023-02-15T01:03:01;101450.0;;;3.611111111111111;56.8
64862;BME280;62652;42.274;-71.436;2023-02-15T01:04:02;101450.0;;;3.4999999999999982;57.4
64862;BME280;62652;42.274;-71.436;2023-02-15T01:05:01;101450.0;;;3.3888888888888897;58.2
64862;BME280;62652;42.274;-71.436;2023-02-15T01:06:01;101450.0;;;3.3888888888888897;58.8
64862;BME280;62652;42.274;-71.436;2023-02-15T01:07:00;101440.0;;;3.277777777777777;59.3
64862;BME280;62652;42.274;-71.436;2023-02-15T01:08:01;101460.0;;;3.111111111111112;60.4
64862;BME280;62652;42.274;-71.436;2023-02-15T01:09:00;101450.0;;;3.111111111111112;60.6
64862;BME280;62652;42.274;-71.436;2023-02-15T01:10:01;101460.0;;;3.2222222222222205;60.3
64862;BME280;62652;42.274;-71.436;2023-02-15T01:11:04;101460.0;;;3.2222222222222205;59.8
64862;BME280;62652;42.274;-71.436;2023-02-15T01:12:01;101460.0;;;2.999999999999999;60.1
64862;BME280;62652;42.274;-71.436;2023-02-15T01:13:01;101460.0;;;2.999999999999999;60.4
64862;BME280;62652;42.274;-71.436;2023-02-15T01:14:00;101460.0;;;2.999999999999999;60.7
64862;BME280;62652;42.274;-71.436;2023-02-15T01:15:01;101470.0;;;2.7777777777777777;60.9
64862;BME280;62652;42.274;-71.436;2023-02-15T01:16:01;101470.0;;;2.7777777777777777;61.2
64862;BME280;62652;42.274;-71.436;2023-02-15T01:17:01;101460.0;;;2.7222222222222214;61.6
64862;BME280;62652;42.274;-71.436;2023-02-15T01:18:01;101460.0;;;2.7222222222222214;62.0
64862;BME280;62652;42.274;-71.436;2023-02-15T01:19:00;101470.0;;;2.7222222222222214;62.1
64862;BME280;62652;42.274;-71.436;2023-02-15T01:20:01;101460.0;;;2.7777777777777777;62.3
64862;BME280;62652;42.274;-71.436;2023-02-15T01:21:08;101470.0;;;2.8888888888888906;61.8
64862;BME280;62652;42.274;-71.436;2023-02-15T01:22:01;101470.0;;;2.8888888888888906;61.6
64862;BME280;62652;42.274;-71.436;2023-02-15T01:23:01;101460.0;;;2.8888888888888906;61.2
64862;BME280;62652;42.274;-71.436;2023-02-15T01:24:00;101460.0;;;2.999999999999999;61.5
64862;BME280;62652;42.274;-71.436;2023-02-15T01:25:01;101460.0;;;3.111111111111112;61.5
64862;BME280;62652;42.274;-71.436;2023-02-15T01:26:01;101460.0;;;2.999999999999999;61.3
64862;BME280;62652;42.274;-71.436;2023-02-15T01:27:01;101460.0;;;2.8888888888888906;61.2
64862;BME280;62652;42.274;-71.436;2023-02-15T01:28:02;101470.0;;;2.8888888888888906;61.0
64862;BME280;62652;42.274;-71.436;2023-02-15T01:29:00;101470.0;;;2.7777777777777777;61.0
64862;BME280;62652;42.274;-71.436;2023-02-15T01:30:01;101470.0;;;2.7777777777777777;61.4
64862;BME280;62652;42.274;-71.436;2023-02-15T01:31:04;101480.0;;;2.8888888888888906;62.3
64862;BME280;62652;42.274;-71.436;2023-02-15T01:32:01;101480.0;;;2.999999999999999;62.8
64862;BME280;62652;42.274;-71.436;2023-02-15T01:33:01;101480.0;;;2.7777777777777777;62.5
64862;BME280;62652;42.274;-71.436;2023-02-15T01:34:01;101490.0;;;2.5;63.1
64862;BME280;62652;42.274;-71.436;2023-02-15T01:35:01;101490.0;;;2.3888888888888875;63.9
64862;BME280;62652;42.274;-71.436;2023-02-15T01:36:01;101490.0;;;2.3888888888888875;63.8
64862;BME280;62652;42.274;-71.436;2023-02-15T01:37:01;101500.0;;;2.3888888888888875;62.9
64862;BME280;62652;42.274;-71.436;2023-02-15T01:38:00;101500.0;;;2.3888888888888875;62.4
64862;BME280;62652;42.274;-71.436;2023-02-15T01:39:01;101500.0;;;2.2777777777777786;62.6
64862;BME280;62652;42.274;-71.436;2023-02-15T01:40:01;101500.0;;;2.2222222222222223;62.4
64862;BME280;62652;42.274;-71.436;2023-02-15T01:41:01;101500.0;;;2.2222222222222223;62.7
64862;BME280;62652;42.274;-71.436;2023-02-15T01:42:01;101500.0;;;2.2777777777777786;62.6
64862;BME280;62652;42.274;-71.436;2023-02-15T01:43:01;101500.0;;;2.2777777777777786;63.3
64862;BME280;62652;42.274;-71.436;2023-02-15T01:44:03;101500.0;;;2.2777777777777786;63.9
64862;BME280;62652;42.274;-71.436;2023-02-15T01:45:03;101500.0;;;2.3888888888888875;63.2
64862;BME280;62652;42.274;-71.436;2023-02-15T01:46:00;101500.0;;;2.3888888888888875;62.2
64862;BME280;62652;42.274;-71.436;2023-02-15T01:47:01;101490.0;;;2.3888888888888875;63.3
64862;BME280;62652;42.274;-71.436;2023-02-15T01:48:03;101490.0;;;2.5;62.8
64862;BME280;62652;42.274;-71.436;2023-02-15T01:49:03;101480.0;;;2.6111111111111125;62.4
64862;BME280;62652;42.274;-71.436;2023-02-15T01:50:07;101480.0;;;2.6111111111111125;62.8
64862;BME280;62652;42.274;-71.436;2023-02-15T01:51:01;101480.0;;;2.6111111111111125;63.3
64862;BME280;62652;42.274;-71.436;2023-02-15T01:52:01;101480.0;;;2.5;63.4
64862;BME280;62652;42.274;-71.436;2023-02-15T01:53:05;101480.0;;;2.3888888888888875;63.1
64862;BME280;62652;42.274;-71.436;2023-02-15T01:54:05;101490.0;;;2.2222222222222223;63.8
64862;BME280;62652;42.274;-71.436;2023-02-15T01:55:01;101490.0;;;2.1111111111111094;64.1
64862;BME280;62652;42.274;-71.436;2023-02-15T01:56:05;101490.0;;;2.000000000000001;64.8
64862;BME280;62652;42.274;-71.436;2023-02-15T01:57:04;101490.0;;;1.8888888888888882;65.6
64862;BME280;62652;42.274;-71.436;2023-02-15T01:58:01;101500.0;;;1.7777777777777795;65.9
64862;BME280;62652;42.274;-71.436;2023-02-15T01:59:04;101500.0;;;1.7777777777777795;65.8
64862;BME280;62652;42.274;-71.436;2023-02-15T02:00:03;101510.0;;;1.7777777777777795;66.0
64862;BME280;62652;42.274;-71.436;2023-02-15T02:01:01;101520.0;;;1.6111111111111103;66.8
64862;BME280;62652;42.274;-71.436;2023-02-15T02:02:02;101520.0;;;1.6111111111111103;67.2
64862;BME280;62652;42.274;-71.436;2023-02-15T02:03:02;101520.0;;;1.7777777777777795;67.0
64862;BME280;62652;42.274;-71.436;2023-02-15T02:04:05;101520.0;;;2.000000000000001;66.5
64862;BME280;62652;42.274;-71.436;2023-02-15T02:05:03;101520.0;;;1.8888888888888882;66.7
64862;BME280;62652;42.274;-71.436;2023-02-15T02:06:01;101520.0;;;2.000000000000001;67.2
64862;BME280;62652;42.274;-71.436;2023-02-15T02:07:00;101520.0;;;2.000000000000001;66.5
64862;BME280;62652;42.274;-71.436;2023-02-15T02:08:02;101520.0;;;2.000000000000001;66.7
64862;BME280;62652;42.274;-71.436;2023-02-15T02:09:02;101520.0;;;2.000000000000001;66.4
64862;BME280;62652;42.274;-71.436;2023-02-15T02:10:02;101520.0;;;2.000000000000001;66.2
64862;BME280;62652;42.274;-71.436;2023-02-15T02:11:00;101520.0;;;2.000000000000001;66.9
64862;BME280;62652;42.274;-71.436;2023-02-15T02:12:01;101520.0;;;1.8888888888888882;67.3
64862;BME280;62652;42.274;-71.436;2023-02-15T02:13:03;101520.0;;;1.7777777777777795;67.8
64862;BME280;62652;42.274;-71.436;2023-02-15T02:14:01;101520.0;;;1.8888888888888882;68.0
64862;BME280;62652;42.274;-71.436;2023-02-15T02:15:01;101520.0;;;1.8888888888888882;67.9
64862;BME280;62652;42.274;-71.436;2023-02-15T02:16:08;101520.0;;;1.8888888888888882;67.9
64862;BME280;62652;42.274;-71.436;2023-02-15T02:17:07;101530.0;;;1.7777777777777795;67.9
64862;BME280;62652;42.274;-71.436;2023-02-15T02:18:13;101530.0;;;1.722222222222223;68.3
64862;BME280;62652;42.274;-71.436;2023-02-15T02:19:11;101530.0;;;1.722222222222223;68.2
64862;BME280;62652;42.274;-71.436;2023-02-15T02:20:15;101530.0;;;1.722222222222223;68.5
64862;BME280;62652;42.274;-71.436;2023-02-15T02:23:13;101540.0;;;1.6111111111111103;66.7
64862;BME280;62652;42.274;-71.436;2023-02-15T02:25:12;101540.0;;;1.6111111111111103;67.3
64862;BME280;62652;42.274;-71.436;2023-02-15T02:27:18;101530.0;;;1.6111111111111103;66.7
64862;BME280;62652;42.274;-71.436;2023-02-15T02:28:15;101530.0;;;1.6111111111111103;66.8
64862;BME280;62652;42.274;-71.436;2023-02-15T02:30:20;101530.0;;;1.7777777777777795;67.0
64862;BME280;62652;42.274;-71.436;2023-02-15T02:31:16;101520.0;;;1.722222222222223;67.7
64862;BME280;62652;42.274;-71.436;2023-02-15T02:32:16;101520.0;;;1.6111111111111103;68.5
64862;BME280;62652;42.274;-71.436;2023-02-15T02:33:14;101520.0;;;1.5000000000000016;69.3
64862;BME280;62652;42.274;-71.436;2023-02-15T02:34:05;101530.0;;;1.5000000000000016;70.0
64862;BME280;62652;42.274;-71.436;2023-02-15T02:35:07;101530.0;;;1.3888888888888888;70.5
64862;BME280;62652;42.274;-71.436;2023-02-15T02:36:09;101530.0;;;1.2777777777777761;70.7
64862;BME280;62652;42.274;-71.436;2023-02-15T02:37:10;101530.0;;;1.2777777777777761;70.5
64862;BME280;62652;42.274;-71.436;2023-02-15T02:38:05;101540.0;;;1.2777777777777761;70.8
64862;BME280;62652;42.274;-71.436;2023-02-15T02:39:12;101540.0;;;1.2777777777777761;71.1
64862;BME280;62652;42.274;-71.436;2023-02-15T02:40:08;101540.0;;;1.2777777777777761;70.8
64862;BME280;62652;42.274;-71.436;2023-02-15T02:41:12;101540.0;;;1.2777777777777761;70.9
64862;BME280;62652;42.274;-71.436;2023-02-15T02:42:05;101540.0;;;1.3888888888888888;70.9
64862;BME280;62652;42.274;-71.436;2023-02-15T02:43:05;101540.0;;;1.3888888888888888;71.0
64862;BME280;62652;42.274;-71.436;2023-02-15T02:44:07;101550.0;;;1.2777777777777761;70.6
64862;BME280;62652;42.274;-71.436;2023-02-15T02:45:05;101540.0;;;1.2777777777777761;70.5
64862;BME280;62652;42.274;-71.436;2023-02-15T02:46:06;101540.0;;;1.2222222222222239;70.8
64862;BME280;62652;42.274;-71.436;2023-02-15T02:47:05;101540.0;;;1.1111111111111112;71.8
64862;BME280;62652;42.274;-71.436;2023-02-15T02:48:05;101540.0;;;1.1111111111111112;72.5
64862;BME280;62652;42.274;-71.436;2023-02-15T02:49:02;101540.0;;;1.1111111111111112;72.4
64862;BME280;62652;42.274;-71.436;2023-02-15T02:50:04;101540.0;;;1.2222222222222239;72.2
64862;BME280;62652;42.274;-71.436;2023-02-15T02:51:00;101530.0;;;1.2222222222222239;72.6
64862;BME280;62652;42.274;-71.436;2023-02-15T02:52:02;101540.0;;;1.1111111111111112;73.4
64862;BME280;62652;42.274;-71.436;2023-02-15T02:53:00;101530.0;;;1.1111111111111112;73.8
64862;BME280;62652;42.274;-71.436;2023-02-15T02:54:05;101530.0;;;0.9999999999999984;74.5
64862;BME280;62652;42.274;-71.436;2023-02-15T02:55:02;101530.0;;;0.8888888888888897;75.2
64862;BME280;62652;42.274;-71.436;2023-02-15T02:56:06;101530.0;;;0.777777777777777;74.9
64862;BME280;62652;42.274;-71.436;2023-02-15T02:57:03;101530.0;;;0.777777777777777;75.5
64862;BME280;62652;42.274;-71.436;2023-02-15T02:58:05;101530.0;;;0.777777777777777;75.5
64862;BME280;62652;42.274;-71.436;2023-02-15T02:59:05;101530.0;;;0.777777777777777;75.5
64862;BME280;62652;42.274;-71.436;2023-02-15T03:00:03;101540.0;;;0.777777777777777;75.6
64862;BME280;62652;42.274;-71.436;2023-02-15T03:01:05;101540.0;;;0.7222222222222207;75.9
64862;BME280;62652;42.274;-71.436;2023-02-15T03:02:06;101540.0;;;0.7222222222222207;76.1
64862;BME280;62652;42.274;-71.436;2023-02-15T03:03:06;101540.0;;;0.6111111111111119;76.6
64862;BME280;62652;42.274;-71.436;2023-02-15T03:04:04;101540.0;;;0.6111111111111119;76.6
64862;BME280;62652;42.274;-71.436;2023-02-15T03:05:03;101540.0;;;0.7222222222222207;77.1
64862;BME280;62652;42.274;-71.436;2023-02-15T03:06:04;101540.0;;;0.4999999999999992;77.9
64862;BME280;62652;42.274;-71.436;2023-02-15T03:07:03;101540.0;;;0.4999999999999992;78.1
64862;BME280;62652;42.274;-71.436;2023-02-15T03:08:02;101540.0;;;0.777777777777777;77.3
64862;BME280;62652;42.274;-71.436;2023-02-15T03:09:06;101540.0;;;0.7222222222222207;77.2
64862;BME280;62652;42.274;-71.436;2023-02-15T03:10:04;101540.0;;;0.7222222222222207;76.9
64862;BME280;62652;42.274;-71.436;2023-02-15T03:11:03;101540.0;;;0.6111111111111119;76.9
64862;BME280;62652;42.274;-71.436;2023-02-15T03:12:02;101540.0;;;0.7222222222222207;76.2
64862;BME280;62652;42.274;-71.436;2023-02-15T03:13:01;101540.0;;;0.6111111111111119;76.3
64862;BME280;62652;42.274;-71.436;2023-02-15T03:14:01;101540.0;;;0.7222222222222207;75.8
64862;BME280;62652;42.274;-71.436;2023-02-15T03:15:04;101540.0;;;0.6111111111111119;76.1
64862;BME280;62652;42.274;-71.436;2023-02-15T03:16:02;101540.0;;;0.6111111111111119;75.8
64862;BME280;62652;42.274;-71.436;2023-02-15T03:17:01;101550.0;;;0.6111111111111119;75.8
64862;BME280;62652;42.274;-71.436;2023-02-15T03:18:02;101550.0;;;0.6111111111111119;75.7
64862;BME280;62652;42.274;-71.436;2023-02-15T03:19:05;101550.0;;;0.38888888888889045;76.8
64862;BME280;62652;42.274;-71.436;2023-02-15T03:20:05;101550.0;;;0.4999999999999992;77.3
64862;BME280;62652;42.274;-71.436;2023-02-15T03:21:02;101550.0;;;0.4999999999999992;76.8
64862;BME280;62652;42.274;-71.436;2023-02-15T03:22:04;101550.0;;;0.38888888888889045;77.1
64862;BME280;62652;42.274;-71.436;2023-02-15T03:23:03;101560.0;;;0.38888888888889045;76.8
64862;BME280;62652;42.274;-71.436;2023-02-15T03:24:04;101560.0;;;0.2777777777777778;77.0
64862;BME280;62652;42.274;-71.436;2023-02-15T03:25:05;101560.0;;;0.2777777777777778;77.2
64862;BME280;62652;42.274;-71.436;2023-02-15T03:26:04;101560.0;;;0.22222222222222143;77.6
64862;BME280;62652;42.274;-71.436;2023-02-15T03:27:04;101560.0;;;0.2777777777777778;77.2
64862;BME280;62652;42.274;-71.436;2023-02-15T03:28:04;101550.0;;;0.2777777777777778;76.3
64862;BME280;62652;42.274;-71.436;2023-02-15T03:29:03;101550.0;;;0.2777777777777778;76.4
64862;BME280;62652;42.274;-71.436;2023-02-15T03:30:03;101560.0;;;0.2777777777777778;76.7
64862;BME280;62652;42.274;-71.436;2023-02-15T03:31:04;101560.0;;;0.38888888888889045;75.8
64862;BME280;62652;42.274;-71.436;2023-02-15T03:32:04;101560.0;;;0.2777777777777778;74.9
64862;BME280;62652;42.274;-71.436;2023-02-15T03:33:02;101560.0;;;0.2777777777777778;74.5
64862;BME280;62652;42.274;-71.436;2023-02-15T03:34:04;101560.0;;;0.4999999999999992;75.1
64862;BME280;62652;42.274;-71.436;2023-02-15T03:35:01;101560.0;;;0.4999999999999992;75.4
64862;BME280;62652;42.274;-71.436;2023-02-15T03:36:06;101560.0;;;0.6111111111111119;76.1
64862;BME280;62652;42.274;-71.436;2023-02-15T03:37:08;101560.0;;;0.7222222222222207;76.3
64862;BME280;62652;42.274;-71.436;2023-02-15T03:38:01;101560.0;;;0.6111111111111119;76.8
64862;BME280;62652;42.274;-71.436;2023-02-15T03:39:07;101570.0;;;0.6111111111111119;77.2
64862;BME280;62652;42.274;-71.436;2023-02-15T03:40:06;101580.0;;;0.38888888888889045;76.8
64862;BME280;62652;42.274;-71.436;2023-02-15T03:41:02;101580.0;;;0.4999999999999992;77.0
64862;BME280;62652;42.274;-71.436;2023-02-15T03:42:08;101590.0;;;0.38888888888889045;77.2
64862;BME280;62652;42.274;-71.436;2023-02-15T03:43:04;101590.0;;;0.4999999999999992;76.0
64862;BME280;62652;42.274;-71.436;2023-02-15T03:44:05;101590.0;;;0.38888888888889045;75.9
64862;BME280;62652;42.274;-71.436;2023-02-15T03:45:05;101580.0;;;0.22222222222222143;76.7
64862;BME280;62652;42.274;-71.436;2023-02-15T03:46:08;101580.0;;;0.22222222222222143;77.4
64862;BME280;62652;42.274;-71.436;2023-02-15T03:47:04;101570.0;;;0.2777777777777778;77.6
64862;BME280;62652;42.274;-71.436;2023-02-15T03:48:02;101570.0;;;0.38888888888889045;76.8
64862;BME280;62652;42.274;-71.436;2023-02-15T03:49:04;101570.0;;;0.4999999999999992;76.9
64862;BME280;62652;42.274;-71.436;2023-02-15T03:50:04;101570.0;;;0.4999999999999992;76.9
64862;BME280;62652;42.274;-71.436;2023-02-15T03:51:05;101560.0;;;0.38888888888889045;77.2
64862;BME280;62652;42.274;-71.436;2023-02-15T03:52:02;101560.0;;;0.2777777777777778;78.4
64862;BME280;62652;42.274;-71.436;2023-02-15T03:53:04;101550.0;;;0.2777777777777778;79.1
64862;BME280;62652;42.274;-71.436;2023-02-15T03:54:01;101550.0;;;0.22222222222222143;79.6
64862;BME280;62652;42.274;-71.436;2023-02-15T03:55:01;101550.0;;;0.11111111111111269;80.5
64862;BME280;62652;42.274;-71.436;2023-02-15T03:56:00;101560.0;;;-0.11111111111111072;81.8
64862;BME280;62652;42.274;-71.436;2023-02-15T03:57:01;101570.0;;;-0.11111111111111072;82.7
64862;BME280;62652;42.274;-71.436;2023-02-15T03:58:01;101570.0;;;-0.11111111111111072;82.6
64862;BME280;62652;42.274;-71.436;2023-02-15T03:59:01;101580.0;;;-0.11111111111111072;82.6
64862;BME280;62652;42.274;-71.436;2023-02-15T04:00:03;101570.0;;;-0.11111111111111072;82.8
64862;BME280;62652;42.274;-71.436;2023-02-15T04:01:09;101580.0;;;-0.11111111111111072;82.8
64862;BME280;62652;42.274;-71.436;2023-02-15T04:02:12;101570.0;;;-0.22222222222222143;83.6
64862;BME280;62652;42.274;-71.436;2023-02-15T04:03:09;101570.0;;;-0.11111111111111072;83.7
64862;BME280;62652;42.274;-71.436;2023-02-15T04:04:07;101570.0;;;-0.11111111111111072;84.0
64862;BME280;62652;42.274;-71.436;2023-02-15T04:05:00;101570.0;;;-0.22222222222222143;84.9
64862;BME280;62652;42.274;-71.436;2023-02-15T04:06:02;101560.0;;;-0.11111111111111072;84.5
64862;BME280;62652;42.274;-71.436;2023-02-15T04:07:01;101560.0;;;-0.11111111111111072;84.7
64862;BME280;62652;42.274;-71.436;2023-02-15T04:08:01;101560.0;;;-0.11111111111111072;84.4
64862;BME280;62652;42.274;-71.436;2023-02-15T04:09:01;101570.0;;;-0.11111111111111072;84.5
64862;BME280;62652;42.274;-71.436;2023-02-15T04:10:00;101560.0;;;-0.22222222222222143;85.3
64862;BME280;62652;42.274;-71.436;2023-02-15T04:11:00;101570.0;;;-0.2777777777777778;86.3
64862;BME280;62652;42.274;-71.436;2023-02-15T04:12:00;101570.0;;;-0.2777777777777778;86.9
64862;BME280;62652;42.274;-71.436;2023-02-15T04:13:00;101570.0;;;-0.2777777777777778;86.8
64862;BME280;62652;42.274;-71.436;2023-02-15T04:14:01;101570.0;;;-0.2777777777777778;86.5
64862;BME280;62652;42.274;-71.436;2023-02-15T04:15:00;101570.0;;;-0.2777777777777778;86.7
64862;BME280;62652;42.274;-71.436;2023-02-15T04:16:00;101570.0;;;-0.2777777777777778;86.6
64862;BME280;62652;42.274;-71.436;2023-02-15T04:17:05;101570.0;;;-0.2777777777777778;86.4
64862;BME280;62652;42.274;-71.436;2023-02-15T04:18:02;101570.0;;;-0.2777777777777778;86.4
64862;BME280;62652;42.274;-71.436;2023-02-15T04:19:01;101570.0;;;-0.2777777777777778;86.5
64862;BME280;62652;42.274;-71.436;2023-02-15T04:20:01;101560.0;;;-0.3888888888888885;87.0
64862;BME280;62652;42.274;-71.436;2023-02-15T04:21:00;101560.0;;;-0.4999999999999992;87.7
64862;BME280;62652;42.274;-71.436;2023-02-15T04:22:00;101570.0;;;-0.4999999999999992;87.9
64862;BME280;62652;42.274;-71.436;2023-02-15T04:23:01;101570.0;;;-0.4999999999999992;87.9
64862;BME280;62652;42.274;-71.436;2023-02-15T04:24:01;101570.0;;;-0.3888888888888885;87.8
64862;BME280;62652;42.274;-71.436;2023-02-15T04:25:00;101570.0;;;-0.3888888888888885;87.9
64862;BME280;62652;42.274;-71.436;2023-02-15T04:26:03;101580.0;;;-0.3888888888888885;87.3
64862;BME280;62652;42.274;-71.436;2023-02-15T04:27:02;101580.0;;;-0.2777777777777778;86.9
64862;BME280;62652;42.274;-71.436;2023-02-15T04:28:01;101590.0;;;-0.2777777777777778;86.7
64862;BME280;62652;42.274;-71.436;2023-02-15T04:29:00;101590.0;;;-0.22222222222222143;86.2
64862;BME280;62652;42.274;-71.436;2023-02-15T04:30:01;101590.0;;;-0.22222222222222143;86.3
64862;BME280;62652;42.274;-71.436;2023-02-15T04:31:00;101590.0;;;-0.22222222222222143;86.4
64862;BME280;62652;42.274;-71.436;2023-02-15T04:32:01;101590.0;;;-0.22222222222222143;86.2
64862;BME280;62652;42.274;-71.436;2023-02-15T04:33:00;101590.0;;;-0.2777777777777778;86.5